Главная страница
METAR-TAF:

METAR-TAF

Аэропорты :

Гамбург-Финкенвердер

Финкенвердер, Германия

широта: 53-32N, долгота: 009-50E, высота над уровнем моря: 5 м

Текущие метеонаблюдения

Эта сводка был подготовлена 21 минут назад, в 23:20 UTC
Ветер 3 Узел от западный-юго-западный
Температура 11°C
Влажность 82%
Давление 1014 hPa
Видимость 10 км и более

METAR: EDHI 232320Z AUTO 24003KT 9999 // NCD 11/08 Q1014

Время: 01:41 (23:41 UTC)

Прогноз

Эта сводка был подготовлена 6 часа и 41 минут назад, в 17:00 UTC
Прогноз действительный с 23-го 18 UTC до 23-го 21 UTC
Ветер 4 Узел от юго-западный
Видимость 10 км и более
Нет облачности ниже 1500 м, и нет кучево-дождевой облачности

TAF: EDHI 231700Z 2318/2321 22004KT CAVOK

Метеонаблюдения и прогнозы для более 4000 аэропортов (сводки METAR и TAF).

Имеющиеся станции представлены на карте желтыми и красными точками.

Чтобы увидеть название станции, наведите на нее мышь.

Затем щелкните, чтобы увидеть метеонаблюдения и метеопрогнозы.

Управление картой: чтобы увеличить масштаб, щелкните зеленые кнопки с черным крестиком; чтобы уменьшить масштаб, щелкните зеленую кнопку с тире; для просмотра соседних карт щелкайте зеленые стрелки.


METAR-TAF: